Haima, Oman
Current Conditions -  °F | °C
As of 11:55 PM on Monday 22 Dec 2014 (Local Time) from KQTH Reporting Station
Clear Clear  
Wind Chill: 59°   Ceiling: Unl
Heat Index: 59°   Visibility: 6mi
Dew Point: 31°   Wind: 5mph
Humidity: 35%   Direction: 170°S
Pressure: 30.11"   Gusts: NA
Location:  19.97°N, 56.28°E
Report Text: KQTH 221955Z AUTO 17004KT 9999 CLR 15/00 A3011 RMK AO2 SLP185 T01491004 $
Loading
Personal Weather Stations






























Interactive Weather Map New forecast layout! Learn more

10-Day Weather Forecast

Advertisements
Track Severe Weather on mobile